Time;durP1;ratioP1;P1;durP2;ratioP2;P2;SDS_P1;SDS_P2;PMS_P1;PMS_P2;Temp;Humidity;BMP_temperature;BMP_pressure;BME280_temperature;BME280_humidity;BME280_pressure;Samples;Min_cycle;Max_cycle;Signal;HPM_P1;HPM_P2
2021/09/15 00:22:10;;;;;;;12.07;5.38;;;;;;;;;;4950797;29;20063;-75
2021/09/15 00:24:40;;;;;;;10.98;5.72;;;;;;;;;;4971840;28;20050;-73
2021/09/15 00:27:08;;;;;;;14.52;5.57;;;;;;;;;;4974247;28;20529;-70
2021/09/15 00:29:38;;;;;;;11.10;5.72;;;;;;;;;;4972779;28;20141;-70
2021/09/15 00:32:06;;;;;;;9.40;5.40;;;;;;;;;;4974208;28;20134;-70
2021/09/15 00:34:35;;;;;;;11.52;5.55;;;;;;;;;;4972868;28;20089;-70
2021/09/15 00:37:03;;;;;;;17.02;6.25;;;;;;;;;;4973995;28;20126;-69
2021/09/15 00:39:32;;;;;;;15.77;5.80;;;;;;;;;;4973215;28;20057;-70
2021/09/15 00:42:01;;;;;;;11.98;5.45;;;;;;;;;;4973491;28;20082;-69
2021/09/15 00:44:29;;;;;;;9.55;5.20;;;;;;;;;;4972467;28;20073;-70
2021/09/15 00:46:58;;;;;;;12.77;6.20;;;;;;;;;;4973174;28;20049;-70
2021/09/15 00:49:26;;;;;;;9.75;4.43;;;;;;;;;;4973067;28;20078;-70
2021/09/15 00:51:54;;;;;;;12.75;5.05;;;;;;;;;;4973485;28;20047;-69
2021/09/15 00:54:22;;;;;;;10.55;5.32;;;;;;;;;;4972494;28;20145;-70
2021/09/15 00:56:51;;;;;;;9.85;5.45;;;;;;;;;;4973346;28;20049;-71
2021/09/15 00:59:20;;;;;;;9.95;5.38;;;;;;;;;;4972735;28;20051;-72
2021/09/15 01:01:48;;;;;;;7.55;4.88;;;;;;;;;;4999313;23;20050;-72
2021/09/15 01:04:17;;;;;;;10.23;5.10;;;;;;;;;;4991163;28;20507;-69
2021/09/15 01:06:45;;;;;;;10.60;5.25;;;;;;;;;;4991779;28;20414;-68
2021/09/15 01:09:14;;;;;;;11.18;4.85;;;;;;;;;;4991594;28;20057;-69
2021/09/15 01:11:42;;;;;;;11.55;5.38;;;;;;;;;;4991306;28;20426;-70
2021/09/15 01:14:11;;;;;;;10.68;5.05;;;;;;;;;;4991201;28;20133;-69
2021/09/15 01:16:50;;;;;;;7.90;4.93;;;;;;;;;;4990682;28;20049;-70
2021/09/15 01:19:19;;;;;;;9.80;5.43;;;;;;;;;;4990693;28;20394;-68
2021/09/15 01:21:49;;;;;;;9.52;5.22;;;;;;;;;;4991164;28;20053;-68
2021/09/15 01:24:17;;;;;;;10.02;5.10;;;;;;;;;;4991218;28;20057;-68
2021/09/15 01:26:46;;;;;;;12.13;5.43;;;;;;;;;;4991087;28;20141;-70
2021/09/15 01:29:15;;;;;;;10.18;5.07;;;;;;;;;;4991128;28;20065;-68
2021/09/15 01:31:59;;;;;;;10.73;4.72;;;;;;;;;;4991923;28;20049;-71
2021/09/15 01:34:28;;;;;;;10.43;5.18;;;;;;;;;;4988653;28;20089;-68
2021/09/15 01:36:57;;;;;;;9.48;5.13;;;;;;;;;;4992118;28;20137;-68
2021/09/15 01:39:25;;;;;;;7.80;5.20;;;;;;;;;;4995828;28;20046;-68
2021/09/15 01:41:57;;;;;;;10.77;4.95;;;;;;;;;;4990494;28;20042;-68
2021/09/15 01:44:31;;;;;;;7.35;5.05;;;;;;;;;;4990726;28;20046;-69
2021/09/15 01:47:00;;;;;;;7.90;4.95;;;;;;;;;;4991454;28;20056;-68
2021/09/15 01:49:29;;;;;;;9.85;4.90;;;;;;;;;;4990773;28;20418;-71
2021/09/15 01:51:59;;;;;;;10.00;5.80;;;;;;;;;;4991013;28;20125;-69
2021/09/15 01:54:27;;;;;;;7.85;4.85;;;;;;;;;;4990800;28;20060;-68
2021/09/15 01:56:56;;;;;;;7.55;4.47;;;;;;;;;;4990766;28;20051;-68
2021/09/15 01:59:24;;;;;;;8.70;4.82;;;;;;;;;;4991189;28;20042;-68
2021/09/15 02:01:53;;;;;;;8.52;5.25;;;;;;;;;;4990878;28;20425;-68
2021/09/15 02:04:21;;;;;;;8.98;4.78;;;;;;;;;;4989704;28;20043;-70
2021/09/15 02:06:49;;;;;;;10.95;5.45;;;;;;;;;;4990776;28;20046;-68
2021/09/15 02:09:19;;;;;;;9.02;5.07;;;;;;;;;;4990736;28;20050;-68
2021/09/15 02:11:47;;;;;;;8.15;4.72;;;;;;;;;;4991358;28;20057;-68
2021/09/15 02:14:16;;;;;;;8.75;5.07;;;;;;;;;;4989779;28;20414;-68
2021/09/15 02:16:44;;;;;;;7.93;4.95;;;;;;;;;;4990503;28;20081;-68
2021/09/15 02:19:12;;;;;;;7.18;4.95;;;;;;;;;;4990963;28;20044;-70
2021/09/15 02:21:41;;;;;;;9.55;5.13;;;;;;;;;;4991473;28;20065;-72
2021/09/15 02:24:09;;;;;;;7.22;4.72;;;;;;;;;;4990764;28;20085;-68
2021/09/15 02:26:39;;;;;;;8.85;5.07;;;;;;;;;;4991127;28;20144;-68
2021/09/15 02:29:07;;;;;;;8.80;4.97;;;;;;;;;;4991059;28;20109;-68
2021/09/15 02:31:35;;;;;;;10.18;5.40;;;;;;;;;;4995159;28;20048;-68
2021/09/15 02:34:04;;;;;;;12.85;5.55;;;;;;;;;;4994159;28;20359;-68
2021/09/15 02:36:32;;;;;;;7.70;4.63;;;;;;;;;;4995041;28;20256;-68
2021/09/15 02:39:00;;;;;;;8.15;5.57;;;;;;;;;;4994399;28;20138;-72
2021/09/15 02:41:28;;;;;;;8.40;5.70;;;;;;;;;;4994264;28;20046;-69
2021/09/15 02:43:58;;;;;;;9.05;5.13;;;;;;;;;;4994113;28;20046;-68
2021/09/15 02:46:26;;;;;;;8.93;5.28;;;;;;;;;;4994146;28;20050;-70
2021/09/15 02:48:54;;;;;;;10.32;5.40;;;;;;;;;;4995178;28;20505;-68
2021/09/15 02:51:23;;;;;;;8.80;5.20;;;;;;;;;;4994674;28;20097;-69
2021/09/15 02:53:51;;;;;;;9.82;5.55;;;;;;;;;;4994522;28;20060;-68
2021/09/15 02:56:19;;;;;;;9.48;4.72;;;;;;;;;;4995042;28;20050;-70
2021/09/15 02:58:48;;;;;;;7.38;5.35;;;;;;;;;;4993805;28;20078;-68
2021/09/15 03:01:17;;;;;;;9.10;4.82;;;;;;;;;;4993624;28;20056;-68
2021/09/15 03:03:46;;;;;;;7.75;4.78;;;;;;;;;;4990106;28;20061;-68
2021/09/15 03:06:14;;;;;;;8.23;5.05;;;;;;;;;;4994194;28;20125;-68
2021/09/15 03:08:42;;;;;;;7.57;4.47;;;;;;;;;;4993968;28;20125;-72
2021/09/15 03:11:10;;;;;;;8.55;4.78;;;;;;;;;;4994194;28;20058;-68
2021/09/15 03:13:38;;;;;;;9.27;4.70;;;;;;;;;;4993709;28;20555;-69
2021/09/15 03:16:07;;;;;;;9.20;4.90;;;;;;;;;;4994008;28;20068;-68
2021/09/15 03:18:36;;;;;;;6.82;4.85;;;;;;;;;;4993274;28;20066;-68
2021/09/15 03:21:05;;;;;;;8.77;5.50;;;;;;;;;;4993975;28;20039;-68
2021/09/15 03:23:34;;;;;;;8.10;4.93;;;;;;;;;;4993307;28;20116;-68
2021/09/15 03:26:02;;;;;;;9.82;4.68;;;;;;;;;;4993806;28;20049;-73
2021/09/15 03:28:30;;;;;;;8.20;5.10;;;;;;;;;;4994313;28;20129;-68
2021/09/15 03:30:58;;;;;;;8.45;4.70;;;;;;;;;;4994297;28;20143;-68
2021/09/15 03:33:27;;;;;;;8.63;5.28;;;;;;;;;;4994871;28;20049;-69
2021/09/15 03:35:56;;;;;;;7.38;4.68;;;;;;;;;;4995543;28;20137;-69
2021/09/15 03:38:24;;;;;;;11.30;4.88;;;;;;;;;;4997076;28;20129;-68
2021/09/15 03:40:53;;;;;;;7.65;4.55;;;;;;;;;;4997535;28;20050;-68
2021/09/15 03:43:21;;;;;;;7.35;4.78;;;;;;;;;;4997921;28;20349;-68
2021/09/15 03:45:49;;;;;;;11.05;5.43;;;;;;;;;;4984153;28;20134;-68
2021/09/15 03:48:17;;;;;;;8.07;4.78;;;;;;;;;;4998723;28;20050;-68
2021/09/15 03:50:46;;;;;;;9.98;5.30;;;;;;;;;;4993050;28;20050;-70
2021/09/15 03:53:15;;;;;;;8.07;4.85;;;;;;;;;;4992531;28;20060;-68
2021/09/15 03:55:44;;;;;;;8.95;5.22;;;;;;;;;;4992952;28;20053;-69
2021/09/15 03:58:12;;;;;;;8.13;5.03;;;;;;;;;;4988649;28;20129;-71
2021/09/15 04:00:40;;;;;;;11.40;4.88;;;;;;;;;;4993015;28;20137;-68
2021/09/15 04:03:09;;;;;;;9.95;5.65;;;;;;;;;;4992634;28;20446;-68
2021/09/15 04:05:37;;;;;;;9.95;5.45;;;;;;;;;;4992306;28;20046;-68
2021/09/15 04:08:05;;;;;;;11.10;5.38;;;;;;;;;;4995586;28;20157;-68
2021/09/15 04:10:35;;;;;;;8.10;5.00;;;;;;;;;;4991876;28;20082;-70
2021/09/15 04:13:04;;;;;;;8.73;4.93;;;;;;;;;;4583333;28;10001258;-69
2021/09/15 04:15:32;;;;;;;10.40;5.20;;;;;;;;;;683402;28;10002022;-70
2021/09/15 04:18:00;;;;;;;9.40;5.22;;;;;;;;;;4991826;28;20050;-69
2021/09/15 04:20:28;;;;;;;7.82;5.20;;;;;;;;;;4990344;28;20133;-69
2021/09/15 04:22:57;;;;;;;8.32;5.07;;;;;;;;;;4989609;28;20129;-69
2021/09/15 04:31:15;;;;;;;11.77;5.03;;;;;;;;;;4988271;28;20165;-70
2021/09/15 04:33:44;;;;;;;9.25;5.47;;;;;;;;;;4988442;28;20069;-70
2021/09/15 04:36:12;;;;;;;9.05;5.50;;;;;;;;;;4988507;28;20047;-69
2021/09/15 04:38:40;;;;;;;13.15;5.40;;;;;;;;;;4987091;28;20054;-68
2021/09/15 04:41:09;;;;;;;10.85;5.50;;;;;;;;;;4988605;28;20520;-70
2021/09/15 04:43:38;;;;;;;9.32;5.38;;;;;;;;;;4989807;28;20129;-69
2021/09/15 04:46:06;;;;;;;10.35;5.38;;;;;;;;;;4987833;28;20046;-70
2021/09/15 04:48:37;;;;;;;6.95;4.85;;;;;;;;;;4987829;28;20082;-69
2021/09/15 04:51:05;;;;;;;11.07;5.75;;;;;;;;;;4988309;28;20136;-69
2021/09/15 04:53:34;;;;;;;11.48;5.75;;;;;;;;;;4985256;28;20299;-70
2021/09/15 04:56:02;;;;;;;10.13;5.13;;;;;;;;;;4987990;28;20046;-68
2021/09/15 04:58:30;;;;;;;9.45;5.38;;;;;;;;;;4987651;28;20196;-72
2021/09/15 05:01:00;;;;;;;12.52;5.35;;;;;;;;;;4987556;28;20502;-68
2021/09/15 05:03:28;;;;;;;7.20;4.82;;;;;;;;;;4984095;28;20050;-69
2021/09/15 05:06:00;;;;;;;10.07;4.82;;;;;;;;;;4987647;28;20058;-69
2021/09/15 05:08:28;;;;;;;8.48;5.28;;;;;;;;;;4989269;28;20057;-69
2021/09/15 05:10:57;;;;;;;8.15;5.03;;;;;;;;;;4973748;28;20137;-69
2021/09/15 05:13:25;;;;;;;8.77;5.60;;;;;;;;;;4987397;28;20140;-70
2021/09/15 05:15:53;;;;;;;12.68;5.82;;;;;;;;;;4987923;28;20518;-69
2021/09/15 05:18:23;;;;;;;8.32;5.07;;;;;;;;;;4979666;28;20073;-69
2021/09/15 05:20:52;;;;;;;8.63;5.40;;;;;;;;;;4980926;28;20057;-68
2021/09/15 05:23:20;;;;;;;8.38;4.70;;;;;;;;;;4979450;28;20165;-71
2021/09/15 05:25:48;;;;;;;7.30;4.97;;;;;;;;;;4987913;28;20057;-71
2021/09/15 05:28:16;;;;;;;13.88;6.05;;;;;;;;;;4989359;28;20510;-69
2021/09/15 05:30:47;;;;;;;7.75;5.10;;;;;;;;;;4986712;28;20097;-69
2021/09/15 05:33:15;;;;;;;13.55;5.45;;;;;;;;;;4987494;28;20112;-68
2021/09/15 05:35:45;;;;;;;12.43;5.40;;;;;;;;;;4987596;28;20133;-69
2021/09/15 05:38:13;;;;;;;7.63;4.63;;;;;;;;;;4984422;28;20132;-70
2021/09/15 05:40:41;;;;;;;11.23;4.95;;;;;;;;;;4987729;28;20050;-70
2021/09/15 05:43:10;;;;;;;8.60;5.28;;;;;;;;;;4996409;28;20064;-68
2021/09/15 05:45:38;;;;;;;8.27;5.80;;;;;;;;;;4987597;28;20433;-68
2021/09/15 05:48:07;;;;;;;10.43;5.30;;;;;;;;;;4987144;28;20057;-67
2021/09/15 05:50:35;;;;;;;9.40;5.20;;;;;;;;;;4987936;28;20129;-67
2021/09/15 05:53:05;;;;;;;9.60;5.18;;;;;;;;;;4989009;28;20046;-69
2021/09/15 05:55:33;;;;;;;12.20;5.30;;;;;;;;;;4985860;28;20549;-67
2021/09/15 05:58:01;;;;;;;8.68;5.18;;;;;;;;;;4987025;28;20105;-69
2021/09/15 06:00:30;;;;;;;9.23;5.43;;;;;;;;;;4989250;28;20532;-68
2021/09/15 06:02:58;;;;;;;7.60;5.30;;;;;;;;;;4986480;28;20510;-68
2021/09/15 06:05:26;;;;;;;10.07;5.43;;;;;;;;;;4988937;28;20050;-67
2021/09/15 06:07:54;;;;;;;8.18;5.13;;;;;;;;;;4981890;28;20055;-68
2021/09/15 06:10:24;;;;;;;10.00;5.13;;;;;;;;;;4984031;28;20072;-68
2021/09/15 06:12:52;;;;;;;9.30;5.47;;;;;;;;;;4990426;28;20054;-66
2021/09/15 06:15:21;;;;;;;8.40;5.28;;;;;;;;;;4989579;28;20073;-69
2021/09/15 06:17:49;;;;;;;8.10;5.68;;;;;;;;;;4990733;28;20768;-72
2021/09/15 06:20:17;;;;;;;10.93;5.15;;;;;;;;;;4988019;28;20460;-67
2021/09/15 06:22:46;;;;;;;10.02;5.30;;;;;;;;;;4988919;28;20527;-67
2021/09/15 06:25:15;;;;;;;10.02;5.70;;;;;;;;;;4985676;28;20428;-70
2021/09/15 06:27:45;;;;;;;9.60;5.78;;;;;;;;;;4989653;28;20117;-71
2021/09/15 06:30:14;;;;;;;9.20;5.55;;;;;;;;;;4989600;28;20125;-71
2021/09/15 06:32:42;;;;;;;10.60;5.72;;;;;;;;;;4989411;28;20097;-67
2021/09/15 06:35:12;;;;;;;8.45;5.00;;;;;;;;;;4989861;28;20054;-68
2021/09/15 06:37:41;;;;;;;11.18;5.05;;;;;;;;;;4985720;28;20626;-71
2021/09/15 06:40:10;;;;;;;11.57;5.65;;;;;;;;;;4987192;28;20073;-66
2021/09/15 06:42:38;;;;;;;10.40;5.13;;;;;;;;;;4989553;28;20194;-69
2021/09/15 06:45:09;;;;;;;11.38;5.50;;;;;;;;;;4990086;28;20050;-69
2021/09/15 06:47:41;;;;;;;8.32;5.22;;;;;;;;;;4990542;28;20081;-68
2021/09/15 06:50:11;;;;;;;7.50;4.78;;;;;;;;;;4989144;28;20054;-69
2021/09/15 06:52:39;;;;;;;8.70;5.45;;;;;;;;;;4985542;28;20061;-67
2021/09/15 06:55:09;;;;;;;15.10;5.68;;;;;;;;;;4989143;28;20046;-67
2021/09/15 06:57:37;;;;;;;8.10;5.00;;;;;;;;;;4990142;28;20058;-68
2021/09/15 07:00:10;;;;;;;10.82;5.82;;;;;;;;;;4989912;28;20039;-68
2021/09/15 07:02:39;;;;;;;11.23;5.40;;;;;;;;;;4994715;28;20054;-67
2021/09/15 07:05:08;;;;;;;7.03;4.68;;;;;;;;;;4987151;28;20046;-68
2021/09/15 07:07:37;;;;;;;8.25;5.22;;;;;;;;;;4990459;28;20050;-68
2021/09/15 07:10:07;;;;;;;8.30;5.50;;;;;;;;;;4988865;28;20425;-68
2021/09/15 07:12:37;;;;;;;9.82;5.60;;;;;;;;;;4989151;28;20495;-71
2021/09/15 07:15:09;;;;;;;8.13;4.82;;;;;;;;;;4989224;28;20128;-69
2021/09/15 07:17:44;;;;;;;9.07;5.70;;;;;;;;;;4986630;28;20061;-67
2021/09/15 07:20:13;;;;;;;9.95;5.82;;;;;;;;;;4980724;28;20050;-67
2021/09/15 07:22:42;;;;;;;9.05;5.25;;;;;;;;;;4989585;28;20450;-67
2021/09/15 07:25:11;;;;;;;8.50;5.40;;;;;;;;;;4989113;28;20075;-67
2021/09/15 07:27:39;;;;;;;10.88;5.80;;;;;;;;;;4988928;28;20046;-68
2021/09/15 07:30:10;;;;;;;8.45;5.03;;;;;;;;;;4979093;28;20471;-68
2021/09/15 07:32:39;;;;;;;10.27;5.53;;;;;;;;;;4987134;28;20051;-70
2021/09/15 07:35:10;;;;;;;12.82;6.97;;;;;;;;;;4969891;28;20515;-69
2021/09/15 07:37:39;;;;;;;12.40;6.70;;;;;;;;;;4982335;28;20105;-68
2021/09/15 07:40:10;;;;;;;11.50;6.30;;;;;;;;;;4990873;28;20046;-69
2021/09/15 07:42:39;;;;;;;13.73;6.80;;;;;;;;;;4990068;28;20079;-70
2021/09/15 07:45:08;;;;;;;13.10;6.60;;;;;;;;;;4990248;28;20046;-70
2021/09/15 07:47:38;;;;;;;9.48;6.40;;;;;;;;;;4988024;28;20490;-70
2021/09/15 07:50:07;;;;;;;8.98;5.53;;;;;;;;;;4989725;28;20280;-71
2021/09/15 07:52:35;;;;;;;13.93;7.13;;;;;;;;;;4987554;28;20050;-68
2021/09/15 07:55:04;;;;;;;11.07;6.10;;;;;;;;;;4992220;28;20050;-68
2021/09/15 07:57:33;;;;;;;12.15;6.32;;;;;;;;;;4988924;28;20418;-68
2021/09/15 08:00:04;;;;;;;11.93;6.60;;;;;;;;;;4991009;28;20046;-71
2021/09/15 08:02:33;;;;;;;11.48;6.50;;;;;;;;;;4989023;28;20100;-67
2021/09/15 08:05:04;;;;;;;11.13;6.57;;;;;;;;;;4987500;28;20074;-67
2021/09/15 08:07:32;;;;;;;10.23;6.22;;;;;;;;;;4991742;28;20061;-68
2021/09/15 08:10:02;;;;;;;10.75;6.20;;;;;;;;;;4991554;28;20050;-67
2021/09/15 08:12:31;;;;;;;8.88;6.20;;;;;;;;;;4987841;28;20054;-70
2021/09/15 08:15:00;;;;;;;10.68;5.95;;;;;;;;;;4983390;28;20054;-67
2021/09/15 08:17:29;;;;;;;10.38;6.78;;;;;;;;;;4990197;28;20074;-68
2021/09/15 08:19:58;;;;;;;11.82;5.78;;;;;;;;;;4991394;28;20061;-67
2021/09/15 08:22:29;;;;;;;8.75;5.72;;;;;;;;;;4991219;28;20046;-68
2021/09/15 08:24:57;;;;;;;8.93;5.55;;;;;;;;;;4989970;28;20054;-68
2021/09/15 08:27:26;;;;;;;9.05;5.25;;;;;;;;;;4988302;28;20050;-71
2021/09/15 08:29:54;;;;;;;11.15;6.07;;;;;;;;;;4990863;28;20062;-68
2021/09/15 08:32:23;;;;;;;10.23;5.93;;;;;;;;;;4990465;28;20495;-67
2021/09/15 08:34:52;;;;;;;9.35;6.07;;;;;;;;;;4991227;28;20462;-67
2021/09/15 08:37:21;;;;;;;8.63;5.60;;;;;;;;;;4989387;28;20502;-68
2021/09/15 08:39:52;;;;;;;9.20;5.60;;;;;;;;;;4991435;28;20047;-67
2021/09/15 08:42:21;;;;;;;9.13;5.10;;;;;;;;;;4982146;28;20145;-69
2021/09/15 08:44:50;;;;;;;8.65;5.05;;;;;;;;;;4990568;28;20137;-67
2021/09/15 08:47:19;;;;;;;9.75;5.55;;;;;;;;;;4990554;28;20046;-70
2021/09/15 08:49:48;;;;;;;11.50;6.25;;;;;;;;;;4990406;28;20507;-68
2021/09/15 08:52:17;;;;;;;8.98;5.55;;;;;;;;;;4989877;28;20074;-68
2021/09/15 08:54:46;;;;;;;8.82;5.47;;;;;;;;;;4989133;28;20059;-67
2021/09/15 08:57:16;;;;;;;11.02;5.78;;;;;;;;;;4990436;28;20121;-69
2021/09/15 08:59:44;;;;;;;9.75;5.32;;;;;;;;;;4985390;28;20050;-69
2021/09/15 09:02:13;;;;;;;7.72;5.18;;;;;;;;;;4990049;28;20459;-67
2021/09/15 09:04:52;;;;;;;11.05;5.28;;;;;;;;;;4988344;28;20533;-69
2021/09/15 09:07:22;;;;;;;12.68;5.50;;;;;;;;;;4989898;28;20042;-69
2021/09/15 09:09:51;;;;;;;9.60;6.00;;;;;;;;;;4989053;28;20502;-67
2021/09/15 09:12:26;;;;;;;9.93;5.55;;;;;;;;;;4988851;28;20034;-67
2021/09/15 09:15:11;;;;;;;9.20;6.07;;;;;;;;;;4989119;28;20051;-68
2021/09/15 09:17:40;;;;;;;9.60;5.05;;;;;;;;;;4988552;28;20465;-67
2021/09/15 09:20:15;;;;;;;8.65;5.38;;;;;;;;;;4990483;28;20101;-69
2021/09/15 09:22:57;;;;;;;8.57;4.90;;;;;;;;;;4989496;28;20056;-69
2021/09/15 09:25:26;;;;;;;9.35;5.72;;;;;;;;;;4989915;28;20074;-68
2021/09/15 09:27:56;;;;;;;9.95;5.65;;;;;;;;;;4991091;28;20267;-70
2021/09/15 09:30:32;;;;;;;9.93;5.95;;;;;;;;;;4989647;28;20490;-67
2021/09/15 09:33:01;;;;;;;10.23;5.63;;;;;;;;;;4985318;28;20100;-67
2021/09/15 09:35:41;;;;;;;12.75;6.25;;;;;;;;;;4990523;28;20069;-67
2021/09/15 09:38:16;;;;;;;8.30;5.00;;;;;;;;;;4990177;28;20513;-67
2021/09/15 09:41:02;;;;;;;8.02;5.50;;;;;;;;;;4989027;28;20093;-69
2021/09/15 09:43:33;;;;;;;10.65;5.68;;;;;;;;;;4989074;28;20542;-67
2021/09/15 09:46:02;;;;;;;9.93;5.30;;;;;;;;;;4989046;28;20113;-69
2021/09/15 09:48:35;;;;;;;10.63;5.22;;;;;;;;;;4987032;28;20399;-67
2021/09/15 09:51:05;;;;;;;10.90;5.22;;;;;;;;;;4995697;28;20125;-67
2021/09/15 09:53:34;;;;;;;6.63;4.90;;;;;;;;;;4990830;28;20112;-67
2021/09/15 09:56:06;;;;;;;9.38;5.63;;;;;;;;;;4990319;28;20046;-67
2021/09/15 09:58:37;;;;;;;7.78;5.00;;;;;;;;;;4987280;28;20399;-68
2021/09/15 10:01:06;;;;;;;11.27;6.70;;;;;;;;;;4983292;28;20047;-67
2021/09/15 10:03:35;;;;;;;10.40;5.53;;;;;;;;;;4976003;28;20588;-67
2021/09/15 10:06:03;;;;;;;9.75;5.80;;;;;;;;;;4990180;28;20090;-67
2021/09/15 10:08:31;;;;;;;8.95;5.45;;;;;;;;;;4989563;28;20463;-69
2021/09/15 10:11:00;;;;;;;10.70;5.60;;;;;;;;;;4993128;28;20554;-67
2021/09/15 10:13:28;;;;;;;11.35;5.35;;;;;;;;;;4983899;28;20050;-67
2021/09/15 10:16:00;;;;;;;8.23;5.30;;;;;;;;;;4989802;28;20046;-68
2021/09/15 10:18:29;;;;;;;11.52;6.15;;;;;;;;;;4990413;28;20047;-68
2021/09/15 10:20:58;;;;;;;9.77;5.60;;;;;;;;;;4989311;28;20051;-68
2021/09/15 10:23:36;;;;;;;10.70;5.55;;;;;;;;;;4987359;28;20046;-67
2021/09/15 10:26:23;;;;;;;12.13;6.68;;;;;;;;;;4984280;28;20043;-67
2021/09/15 10:29:10;;;;;;;10.43;6.38;;;;;;;;;;4989016;28;20089;-67
2021/09/15 10:32:02;;;;;;;11.00;6.03;;;;;;;;;;4984275;28;20371;-69
2021/09/15 10:34:52;;;;;;;10.10;5.60;;;;;;;;;;4973413;28;20124;-67
2021/09/15 10:37:54;;;;;;;14.05;6.43;;;;;;;;;;4972785;28;20086;-68
2021/09/15 10:40:29;;;;;;;13.57;6.13;;;;;;;;;;4988852;28;20108;-68
2021/09/15 10:42:57;;;;;;;8.35;5.78;;;;;;;;;;4984956;28;20129;-68
2021/09/15 10:45:29;;;;;;;11.63;6.47;;;;;;;;;;4987527;28;20093;-68
2021/09/15 10:47:59;;;;;;;10.48;5.45;;;;;;;;;;4983339;28;20152;-68
2021/09/15 10:50:46;;;;;;;11.02;6.60;;;;;;;;;;4986839;28;20454;-69
2021/09/15 10:53:18;;;;;;;11.13;6.75;;;;;;;;;;4991275;28;20086;-69
2021/09/15 10:55:49;;;;;;;11.60;6.53;;;;;;;;;;4991753;28;20569;-67
2021/09/15 10:58:18;;;;;;;11.43;7.10;;;;;;;;;;4990866;28;20070;-69
2021/09/15 11:00:50;;;;;;;9.23;6.22;;;;;;;;;;4992350;28;20546;-67
2021/09/15 11:03:30;;;;;;;10.85;5.95;;;;;;;;;;4992974;28;20061;-68
2021/09/15 11:05:59;;;;;;;12.98;6.80;;;;;;;;;;4987999;28;20054;-68
2021/09/15 11:08:39;;;;;;;12.02;6.43;;;;;;;;;;4990589;28;20082;-68
2021/09/15 11:11:09;;;;;;;10.55;6.55;;;;;;;;;;4970953;28;20129;-70
2021/09/15 11:13:59;;;;;;;11.70;6.18;;;;;;;;;;4975425;28;20078;-71
2021/09/15 11:16:32;;;;;;;11.38;6.70;;;;;;;;;;4988292;28;20108;-67
2021/09/15 11:19:01;;;;;;;9.57;6.00;;;;;;;;;;4988930;28;20221;-68
2021/09/15 11:21:31;;;;;;;12.10;7.90;;;;;;;;;;4989794;28;20081;-69
2021/09/15 11:24:09;;;;;;;11.95;7.00;;;;;;;;;;4991582;28;20058;-69
2021/09/15 11:26:42;;;;;;;11.70;7.13;;;;;;;;;;4990587;28;20105;-67
2021/09/15 11:29:10;;;;;;;10.25;6.57;;;;;;;;;;4989431;28;20086;-70
2021/09/15 11:31:40;;;;;;;14.70;6.95;;;;;;;;;;4991523;28;20688;-68
2021/09/15 11:34:10;;;;;;;10.32;6.25;;;;;;;;;;4991046;28;20054;-68
2021/09/15 11:36:38;;;;;;;11.40;6.75;;;;;;;;;;4984819;28;20449;-72
2021/09/15 11:39:09;;;;;;;9.88;6.30;;;;;;;;;;4991490;28;20050;-68
2021/09/15 11:41:38;;;;;;;10.80;6.63;;;;;;;;;;4994619;28;20045;-68
2021/09/15 11:44:06;;;;;;;10.40;5.88;;;;;;;;;;4992856;28;20050;-71
2021/09/15 11:46:36;;;;;;;11.20;6.20;;;;;;;;;;4990800;28;20842;-70
2021/09/15 11:49:06;;;;;;;12.07;6.03;;;;;;;;;;4982884;28;20125;-68
2021/09/15 11:51:36;;;;;;;12.18;5.90;;;;;;;;;;4988981;28;20107;-71
2021/09/15 11:54:07;;;;;;;12.88;6.35;;;;;;;;;;4992212;28;20046;-76
2021/09/15 11:56:42;;;;;;;11.75;5.70;;;;;;;;;;4989920;28;20053;-68
2021/09/15 11:59:10;;;;;;;;;;;;;;;;;;4992952;28;20042;-70
2021/09/15 12:01:58;;;;;;;10.10;6.32;;;;;;;;;;4993044;28;19984;-71
2021/09/15 12:04:29;;;;;;;8.95;5.38;;;;;;;;;;4992354;28;20295;-68
2021/09/15 12:06:58;;;;;;;10.60;5.85;;;;;;;;;;4992604;28;20054;-68
2021/09/15 12:09:27;;;;;;;14.02;6.10;;;;;;;;;;4994836;28;20129;-68
2021/09/15 12:11:58;;;;;;;10.60;6.07;;;;;;;;;;4990850;28;20058;-71
2021/09/15 12:14:32;;;;;;;12.13;5.65;;;;;;;;;;4990996;28;20055;-67
2021/09/15 12:17:02;;;;;;;17.60;6.10;;;;;;;;;;4987253;28;20053;-72
2021/09/15 12:19:30;;;;;;;14.13;6.13;;;;;;;;;;4990782;28;20112;-68
2021/09/15 12:21:59;;;;;;;11.85;6.13;;;;;;;;;;4992634;28;20046;-68
2021/09/15 12:24:28;;;;;;;19.02;5.72;;;;;;;;;;4990634;28;21290;-69
2021/09/15 12:27:12;;;;;;;10.43;5.88;;;;;;;;;;4985962;28;20058;-70
2021/09/15 12:29:41;;;;;;;9.02;5.40;;;;;;;;;;4991046;28;20107;-72
2021/09/15 12:32:10;;;;;;;11.13;6.75;;;;;;;;;;4992655;28;20086;-69
2021/09/15 12:34:45;;;;;;;11.93;5.72;;;;;;;;;;4990080;28;20077;-70
2021/09/15 12:37:15;;;;;;;9.68;6.75;;;;;;;;;;4991191;28;20061;-68
2021/09/15 12:39:47;;;;;;;10.30;6.47;;;;;;;;;;4991709;28;20050;-68
2021/09/15 12:42:18;;;;;;;12.45;7.57;;;;;;;;;;4990082;28;20065;-73
2021/09/15 12:44:47;;;;;;;12.15;6.82;;;;;;;;;;4986950;28;20065;-69
2021/09/15 12:47:15;;;;;;;14.45;7.20;;;;;;;;;;4990535;28;20058;-72
2021/09/15 12:49:44;;;;;;;16.42;7.30;;;;;;;;;;4990850;28;20466;-68
2021/09/15 12:52:14;;;;;;;12.23;6.32;;;;;;;;;;4990923;28;20038;-70
2021/09/15 12:54:52;;;;;;;10.98;5.88;;;;;;;;;;4974636;28;20050;-69
2021/09/15 12:57:26;;;;;;;11.98;6.57;;;;;;;;;;4985663;28;20077;-69
2021/09/15 12:59:54;;;;;;;12.32;6.38;;;;;;;;;;4990720;28;20046;-69
2021/09/15 13:02:24;;;;;;;12.30;6.22;;;;;;;;;;4989039;28;20476;-68
2021/09/15 13:04:53;;;;;;;10.57;6.60;;;;;;;;;;4990558;28;20105;-68
2021/09/15 13:07:21;;;;;;;10.73;6.60;;;;;;;;;;4990435;28;20088;-70
2021/09/15 13:09:50;;;;;;;15.25;6.78;;;;;;;;;;4984670;28;20050;-68
2021/09/15 13:12:20;;;;;;;12.55;7.22;;;;;;;;;;4990329;28;20053;-69
2021/09/15 13:14:51;;;;;;;14.32;8.35;;;;;;;;;;4988243;28;20061;-72
2021/09/15 13:17:20;;;;;;;12.63;7.63;;;;;;;;;;4990579;28;20422;-69
2021/09/15 13:19:48;;;;;;;16.80;7.65;;;;;;;;;;4990744;28;20062;-70
2021/09/15 13:22:17;;;;;;;14.38;8.15;;;;;;;;;;4986322;28;20042;-70
2021/09/15 13:24:46;;;;;;;13.95;7.65;;;;;;;;;;4990142;28;20054;-71
2021/09/15 13:27:14;;;;;;;14.77;7.90;;;;;;;;;;4988197;28;20073;-72
2021/09/15 13:29:43;;;;;;;15.15;8.20;;;;;;;;;;4990490;28;20442;-72
2021/09/15 13:32:15;;;;;;;14.88;8.15;;;;;;;;;;4988371;28;20046;-75
2021/09/15 13:34:43;;;;;;;15.93;8.60;;;;;;;;;;4982677;28;20145;-70
2021/09/15 13:37:12;;;;;;;14.10;8.38;;;;;;;;;;4970812;28;20043;-71
2021/09/15 13:39:40;;;;;;;12.60;7.07;;;;;;;;;;4968916;28;20150;-69
2021/09/15 13:42:09;;;;;;;12.57;8.23;;;;;;;;;;4970495;28;20078;-70
2021/09/15 13:44:38;;;;;;;14.05;7.72;;;;;;;;;;4983161;28;20053;-72
2021/09/15 13:47:06;;;;;;;13.88;7.55;;;;;;;;;;4987020;28;20050;-70
2021/09/15 13:49:39;;;;;;;15.77;8.75;;;;;;;;;;4988575;28;20062;-69
2021/09/15 13:52:13;;;;;;;14.20;8.35;;;;;;;;;;4990687;28;20877;-69
2021/09/15 13:54:51;;;;;;;12.88;7.47;;;;;;;;;;4989603;28;20052;-69
2021/09/15 13:57:20;;;;;;;13.52;7.50;;;;;;;;;;4988244;28;20049;-69
2021/09/15 13:59:50;;;;;;;14.38;8.60;;;;;;;;;;4989266;28;20145;-71
2021/09/15 14:02:19;;;;;;;13.00;7.65;;;;;;;;;;4983587;28;20153;-69
2021/09/15 14:04:49;;;;;;;15.82;8.85;;;;;;;;;;4984565;28;20047;-69
2021/09/15 14:07:18;;;;;;;15.40;8.40;;;;;;;;;;4989122;28;20101;-69
2021/09/15 14:09:47;;;;;;;12.93;8.15;;;;;;;;;;4980504;28;20444;-70
2021/09/15 14:12:36;;;;;;;13.30;8.10;;;;;;;;;;4981528;28;20472;-69
2021/09/15 14:15:06;;;;;;;17.00;8.57;;;;;;;;;;4988251;28;20047;-69
2021/09/15 14:17:35;;;;;;;15.30;9.20;;;;;;;;;;4986874;28;20050;-69
2021/09/15 14:20:08;;;;;;;13.85;7.90;;;;;;;;;;4972510;28;20082;-71
2021/09/15 14:22:36;;;;;;;13.38;8.15;;;;;;;;;;4984160;28;20081;-69
2021/09/15 14:25:07;;;;;;;13.45;8.35;;;;;;;;;;4988984;28;20046;-69
2021/09/15 14:27:36;;;;;;;17.10;9.10;;;;;;;;;;4992767;28;20053;-70
2021/09/15 14:30:06;;;;;;;17.38;9.25;;;;;;;;;;4992494;28;20047;-69
2021/09/15 14:32:35;;;;;;;10.57;7.32;;;;;;;;;;4992750;28;20718;-69
2021/09/15 14:35:07;;;;;;;15.15;9.05;;;;;;;;;;4991173;28;20394;-69
2021/09/15 14:37:36;;;;;;;14.90;8.10;;;;;;;;;;4993002;28;20154;-69
2021/09/15 14:40:06;;;;;;;15.50;8.68;;;;;;;;;;4983873;28;20050;-68
2021/09/15 14:42:35;;;;;;;14.88;8.18;;;;;;;;;;4993574;28;20046;-68
2021/09/15 14:45:05;;;;;;;15.93;8.18;;;;;;;;;;4993170;28;20122;-69
2021/09/15 14:47:33;;;;;;;11.40;7.65;;;;;;;;;;4993077;28;20050;-71
2021/09/15 14:50:03;;;;;;;11.57;7.53;;;;;;;;;;4989799;28;20173;-69
2021/09/15 14:52:36;;;;;;;9.68;5.97;;;;;;;;;;4974640;28;20059;-70
2021/09/15 14:55:05;;;;;;;10.38;6.68;;;;;;;;;;4986655;28;20490;-69
2021/09/15 14:57:34;;;;;;;9.73;6.35;;;;;;;;;;4987391;28;20050;-69
2021/09/15 15:00:05;;;;;;;10.80;6.65;;;;;;;;;;4992127;28;20092;-68
2021/09/15 15:02:34;;;;;;;12.52;7.30;;;;;;;;;;4981978;28;20514;-69
2021/09/15 15:05:02;;;;;;;15.25;7.88;;;;;;;;;;4992203;28;20054;-69
2021/09/15 15:07:31;;;;;;;11.93;6.68;;;;;;;;;;4991658;28;20050;-68
2021/09/15 15:10:01;;;;;;;11.38;6.97;;;;;;;;;;4991147;28;20050;-69
2021/09/15 15:12:30;;;;;;;10.88;6.63;;;;;;;;;;4990672;28;20574;-70
2021/09/15 15:14:58;;;;;;;12.57;6.85;;;;;;;;;;4988519;28;20054;-70
2021/09/15 15:17:27;;;;;;;10.95;7.00;;;;;;;;;;4988860;28;20069;-68
2021/09/15 15:19:57;;;;;;;10.43;6.75;;;;;;;;;;4989110;28;20384;-69